sensor_id;sensor_type;location;lat;lon;timestamp;temperature;humidity
8105;DHT22;4095;48.942;9.104;2023-01-28T00:01:15;5.20;94.90
8105;DHT22;4095;48.942;9.104;2023-01-28T00:03:42;5.20;94.80
8105;DHT22;4095;48.942;9.104;2023-01-28T00:06:12;5.30;94.80
8105;DHT22;4095;48.942;9.104;2023-01-28T00:08:38;5.20;94.90
8105;DHT22;4095;48.942;9.104;2023-01-28T00:11:06;5.30;95.00
8105;DHT22;4095;48.942;9.104;2023-01-28T00:13:32;5.30;94.90
8105;DHT22;4095;48.942;9.104;2023-01-28T00:16:00;5.30;95.00
8105;DHT22;4095;48.942;9.104;2023-01-28T00:18:27;5.30;94.90
8105;DHT22;4095;48.942;9.104;2023-01-28T00:21:08;5.30;94.90
8105;DHT22;4095;48.942;9.104;2023-01-28T00:23:36;5.30;94.80
8105;DHT22;4095;48.942;9.104;2023-01-28T00:26:10;5.30;94.80
8105;DHT22;4095;48.942;9.104;2023-01-28T00:28:36;5.30;94.90
8105;DHT22;4095;48.942;9.104;2023-01-28T00:33:42;5.30;94.80
8105;DHT22;4095;48.942;9.104;2023-01-28T00:36:08;5.30;94.80
8105;DHT22;4095;48.942;9.104;2023-01-28T00:38:35;5.30;94.80
8105;DHT22;4095;48.942;9.104;2023-01-28T00:41:12;5.30;94.80
8105;DHT22;4095;48.942;9.104;2023-01-28T00:43:38;5.30;94.70
8105;DHT22;4095;48.942;9.104;2023-01-28T00:46:05;5.30;95.00
8105;DHT22;4095;48.942;9.104;2023-01-28T00:48:38;5.30;94.80
8105;DHT22;4095;48.942;9.104;2023-01-28T00:51:05;5.30;94.80
8105;DHT22;4095;48.942;9.104;2023-01-28T00:53:31;5.30;94.80
8105;DHT22;4095;48.942;9.104;2023-01-28T00:55:57;5.30;94.80
8105;DHT22;4095;48.942;9.104;2023-01-28T00:58:22;5.30;94.80
8105;DHT22;4095;48.942;9.104;2023-01-28T01:00:49;5.30;94.80
8105;DHT22;4095;48.942;9.104;2023-01-28T01:03:16;5.30;94.80
8105;DHT22;4095;48.942;9.104;2023-01-28T01:05:41;5.30;94.80
8105;DHT22;4095;48.942;9.104;2023-01-28T01:08:07;5.30;94.80
8105;DHT22;4095;48.942;9.104;2023-01-28T01:10:33;5.30;94.80
8105;DHT22;4095;48.942;9.104;2023-01-28T01:12:59;5.30;94.90
8105;DHT22;4095;48.942;9.104;2023-01-28T01:15:25;5.30;94.80
8105;DHT22;4095;48.942;9.104;2023-01-28T01:17:51;5.30;94.80
8105;DHT22;4095;48.942;9.104;2023-01-28T01:20:22;5.30;94.80
8105;DHT22;4095;48.942;9.104;2023-01-28T01:22:51;5.30;94.80
8105;DHT22;4095;48.942;9.104;2023-01-28T01:25:25;5.30;94.80
8105;DHT22;4095;48.942;9.104;2023-01-28T01:27:51;5.30;94.80
8105;DHT22;4095;48.942;9.104;2023-01-28T01:30:18;5.30;94.90
8105;DHT22;4095;48.942;9.104;2023-01-28T01:32:45;5.30;95.10
8105;DHT22;4095;48.942;9.104;2023-01-28T01:35:11;5.30;95.00
8105;DHT22;4095;48.942;9.104;2023-01-28T01:37:36;5.30;94.90
8105;DHT22;4095;48.942;9.104;2023-01-28T01:40:03;5.30;95.00
8105;DHT22;4095;48.942;9.104;2023-01-28T01:42:30;5.30;94.90
8105;DHT22;4095;48.942;9.104;2023-01-28T01:45:12;5.30;95.10
8105;DHT22;4095;48.942;9.104;2023-01-28T01:47:50;5.30;95.20
8105;DHT22;4095;48.942;9.104;2023-01-28T01:50:33;5.30;95.00
8105;DHT22;4095;48.942;9.104;2023-01-28T01:53:08;5.30;95.10
8105;DHT22;4095;48.942;9.104;2023-01-28T01:55:35;5.30;95.30
8105;DHT22;4095;48.942;9.104;2023-01-28T01:58:07;5.30;95.20
8105;DHT22;4095;48.942;9.104;2023-01-28T02:00:34;5.30;95.10
8105;DHT22;4095;48.942;9.104;2023-01-28T02:03:01;5.30;95.40
8105;DHT22;4095;48.942;9.104;2023-01-28T02:05:41;5.20;95.30
8105;DHT22;4095;48.942;9.104;2023-01-28T02:08:22;5.30;95.30
8105;DHT22;4095;48.942;9.104;2023-01-28T02:10:55;5.20;95.50
8105;DHT22;4095;48.942;9.104;2023-01-28T02:13:27;5.30;95.40
8105;DHT22;4095;48.942;9.104;2023-01-28T02:15:54;5.20;95.30
8105;DHT22;4095;48.942;9.104;2023-01-28T02:18:21;5.20;95.40
8105;DHT22;4095;48.942;9.104;2023-01-28T02:31:43;5.30;95.70
8105;DHT22;4095;48.942;9.104;2023-01-28T02:34:42;5.30;95.70
8105;DHT22;4095;48.942;9.104;2023-01-28T02:37:19;5.30;95.70
8105;DHT22;4095;48.942;9.104;2023-01-28T02:39:54;5.30;95.70
8105;DHT22;4095;48.942;9.104;2023-01-28T02:42:28;5.20;95.70
8105;DHT22;4095;48.942;9.104;2023-01-28T02:44:54;5.20;95.80
8105;DHT22;4095;48.942;9.104;2023-01-28T02:47:20;5.30;95.70
8105;DHT22;4095;48.942;9.104;2023-01-28T02:50:07;5.30;95.80
8105;DHT22;4095;48.942;9.104;2023-01-28T02:52:48;5.30;95.70
8105;DHT22;4095;48.942;9.104;2023-01-28T02:58:52;5.30;95.80
8105;DHT22;4095;48.942;9.104;2023-01-28T03:01:31;5.30;95.80
8105;DHT22;4095;48.942;9.104;2023-01-28T03:04:21;5.30;95.90
8105;DHT22;4095;48.942;9.104;2023-01-28T03:06:51;5.30;95.90
8105;DHT22;4095;48.942;9.104;2023-01-28T03:09:18;5.30;95.90
8105;DHT22;4095;48.942;9.104;2023-01-28T03:12:10;5.30;96.00
8105;DHT22;4095;48.942;9.104;2023-01-28T03:14:58;5.30;96.00
8105;DHT22;4095;48.942;9.104;2023-01-28T03:18:17;5.30;96.00
8105;DHT22;4095;48.942;9.104;2023-01-28T03:21:09;5.30;96.10
8105;DHT22;4095;48.942;9.104;2023-01-28T03:24:02;5.20;96.10
8105;DHT22;4095;48.942;9.104;2023-01-28T03:29:46;5.30;96.20
8105;DHT22;4095;48.942;9.104;2023-01-28T03:32:32;5.20;96.10
8105;DHT22;4095;48.942;9.104;2023-01-28T03:35:17;5.30;96.20
8105;DHT22;4095;48.942;9.104;2023-01-28T03:38:03;5.20;96.50
8105;DHT22;4095;48.942;9.104;2023-01-28T03:41:03;5.30;96.30
8105;DHT22;4095;48.942;9.104;2023-01-28T03:43:30;5.30;96.20
8105;DHT22;4095;48.942;9.104;2023-01-28T03:45:55;5.20;96.30
8105;DHT22;4095;48.942;9.104;2023-01-28T03:48:24;5.20;96.30
8105;DHT22;4095;48.942;9.104;2023-01-28T03:50:50;5.30;96.20
8105;DHT22;4095;48.942;9.104;2023-01-28T03:53:17;5.20;96.40
8105;DHT22;4095;48.942;9.104;2023-01-28T03:55:44;5.20;96.30
8105;DHT22;4095;48.942;9.104;2023-01-28T03:58:11;5.20;96.30
8105;DHT22;4095;48.942;9.104;2023-01-28T04:00:37;5.20;96.40
8105;DHT22;4095;48.942;9.104;2023-01-28T04:03:16;5.30;96.40
8105;DHT22;4095;48.942;9.104;2023-01-28T04:06:16;5.20;96.40
8105;DHT22;4095;48.942;9.104;2023-01-28T04:08:35;5.30;96.40
8105;DHT22;4095;48.942;9.104;2023-01-28T04:11:01;5.30;96.20
8105;DHT22;4095;48.942;9.104;2023-01-28T04:13:44;5.30;96.30
8105;DHT22;4095;48.942;9.104;2023-01-28T04:16:12;5.30;96.30
8105;DHT22;4095;48.942;9.104;2023-01-28T04:18:38;5.30;96.50
8105;DHT22;4095;48.942;9.104;2023-01-28T04:21:03;5.30;96.50
8105;DHT22;4095;48.942;9.104;2023-01-28T04:23:29;5.30;96.50
8105;DHT22;4095;48.942;9.104;2023-01-28T04:25:55;5.30;96.50
8105;DHT22;4095;48.942;9.104;2023-01-28T04:28:20;5.30;96.50
8105;DHT22;4095;48.942;9.104;2023-01-28T04:30:46;5.40;96.80
8105;DHT22;4095;48.942;9.104;2023-01-28T04:33:13;5.30;96.90
8105;DHT22;4095;48.942;9.104;2023-01-28T04:35:38;5.30;96.80
8105;DHT22;4095;48.942;9.104;2023-01-28T04:38:04;5.40;96.80
8105;DHT22;4095;48.942;9.104;2023-01-28T04:40:30;5.30;96.80
8105;DHT22;4095;48.942;9.104;2023-01-28T04:42:56;5.30;96.90
8105;DHT22;4095;48.942;9.104;2023-01-28T04:45:22;5.30;97.30
8105;DHT22;4095;48.942;9.104;2023-01-28T04:47:48;5.30;97.30
8105;DHT22;4095;48.942;9.104;2023-01-28T04:50:14;5.30;97.40
8105;DHT22;4095;48.942;9.104;2023-01-28T04:52:39;5.30;97.50
8105;DHT22;4095;48.942;9.104;2023-01-28T04:55:06;5.40;97.50
8105;DHT22;4095;48.942;9.104;2023-01-28T04:57:32;5.40;97.50
8105;DHT22;4095;48.942;9.104;2023-01-28T04:59:57;5.40;97.60
8105;DHT22;4095;48.942;9.104;2023-01-28T05:02:23;5.30;97.50
8105;DHT22;4095;48.942;9.104;2023-01-28T05:04:48;5.40;97.60
8105;DHT22;4095;48.942;9.104;2023-01-28T05:07:14;5.40;97.70
8105;DHT22;4095;48.942;9.104;2023-01-28T05:09:39;5.40;97.60
8105;DHT22;4095;48.942;9.104;2023-01-28T05:12:05;5.40;97.60
8105;DHT22;4095;48.942;9.104;2023-01-28T05:14:31;5.40;97.70
8105;DHT22;4095;48.942;9.104;2023-01-28T05:16:57;5.30;97.70
8105;DHT22;4095;48.942;9.104;2023-01-28T05:19:23;5.30;97.80
8105;DHT22;4095;48.942;9.104;2023-01-28T05:21:48;5.40;97.80
8105;DHT22;4095;48.942;9.104;2023-01-28T05:24:14;5.30;97.80
8105;DHT22;4095;48.942;9.104;2023-01-28T05:26:40;5.30;97.90
8105;DHT22;4095;48.942;9.104;2023-01-28T05:29:06;5.30;97.90
8105;DHT22;4095;48.942;9.104;2023-01-28T05:31:32;5.30;97.80
8105;DHT22;4095;48.942;9.104;2023-01-28T05:33:58;5.30;97.80
8105;DHT22;4095;48.942;9.104;2023-01-28T05:36:23;5.30;97.90
8105;DHT22;4095;48.942;9.104;2023-01-28T05:38:49;5.30;97.90
8105;DHT22;4095;48.942;9.104;2023-01-28T05:41:15;5.30;97.80
8105;DHT22;4095;48.942;9.104;2023-01-28T05:43:40;5.30;97.70
8105;DHT22;4095;48.942;9.104;2023-01-28T05:46:06;5.30;97.90
8105;DHT22;4095;48.942;9.104;2023-01-28T05:48:31;5.30;97.80
8105;DHT22;4095;48.942;9.104;2023-01-28T05:50:57;5.40;98.00
8105;DHT22;4095;48.942;9.104;2023-01-28T05:53:23;5.30;97.90
8105;DHT22;4095;48.942;9.104;2023-01-28T05:55:49;5.40;98.10
8105;DHT22;4095;48.942;9.104;2023-01-28T05:58:15;5.30;97.90
8105;DHT22;4095;48.942;9.104;2023-01-28T06:00:41;5.30;98.10
8105;DHT22;4095;48.942;9.104;2023-01-28T06:03:07;5.30;98.10
8105;DHT22;4095;48.942;9.104;2023-01-28T06:05:33;5.30;98.20
8105;DHT22;4095;48.942;9.104;2023-01-28T06:07:58;5.30;98.10
8105;DHT22;4095;48.942;9.104;2023-01-28T06:10:24;5.30;98.10
8105;DHT22;4095;48.942;9.104;2023-01-28T06:12:49;5.30;98.20
8105;DHT22;4095;48.942;9.104;2023-01-28T06:15:15;5.30;98.20
8105;DHT22;4095;48.942;9.104;2023-01-28T06:17:41;5.30;98.20
8105;DHT22;4095;48.942;9.104;2023-01-28T06:20:07;5.30;98.20
8105;DHT22;4095;48.942;9.104;2023-01-28T06:22:35;5.30;98.20
8105;DHT22;4095;48.942;9.104;2023-01-28T06:25:01;5.30;98.40
8105;DHT22;4095;48.942;9.104;2023-01-28T06:27:27;5.30;98.30
8105;DHT22;4095;48.942;9.104;2023-01-28T06:29:52;5.30;98.30
8105;DHT22;4095;48.942;9.104;2023-01-28T06:32:18;5.30;98.30
8105;DHT22;4095;48.942;9.104;2023-01-28T06:34:44;5.20;98.60
8105;DHT22;4095;48.942;9.104;2023-01-28T06:37:13;5.30;98.60
8105;DHT22;4095;48.942;9.104;2023-01-28T06:39:39;5.20;98.60
8105;DHT22;4095;48.942;9.104;2023-01-28T06:42:05;5.30;98.60
8105;DHT22;4095;48.942;9.104;2023-01-28T06:44:31;5.30;98.70
8105;DHT22;4095;48.942;9.104;2023-01-28T06:46:56;5.30;98.70
8105;DHT22;4095;48.942;9.104;2023-01-28T06:49:22;5.20;98.60
8105;DHT22;4095;48.942;9.104;2023-01-28T06:51:47;5.20;98.70
8105;DHT22;4095;48.942;9.104;2023-01-28T06:54:13;5.20;98.80
8105;DHT22;4095;48.942;9.104;2023-01-28T06:56:39;5.20;98.90
8105;DHT22;4095;48.942;9.104;2023-01-28T06:59:05;5.30;99.00
8105;DHT22;4095;48.942;9.104;2023-01-28T07:01:30;5.20;98.90
8105;DHT22;4095;48.942;9.104;2023-01-28T07:03:56;5.30;99.00
8105;DHT22;4095;48.942;9.104;2023-01-28T07:06:22;5.30;99.00
8105;DHT22;4095;48.942;9.104;2023-01-28T07:08:47;5.30;99.00
8105;DHT22;4095;48.942;9.104;2023-01-28T07:11:14;5.20;98.90
8105;DHT22;4095;48.942;9.104;2023-01-28T07:13:39;5.20;98.90
8105;DHT22;4095;48.942;9.104;2023-01-28T07:16:06;5.30;99.10
8105;DHT22;4095;48.942;9.104;2023-01-28T07:18:31;5.30;99.10
8105;DHT22;4095;48.942;9.104;2023-01-28T07:20:57;5.30;99.10
8105;DHT22;4095;48.942;9.104;2023-01-28T07:23:23;5.20;99.10
8105;DHT22;4095;48.942;9.104;2023-01-28T07:25:48;5.20;99.10
8105;DHT22;4095;48.942;9.104;2023-01-28T07:28:14;5.30;99.20
8105;DHT22;4095;48.942;9.104;2023-01-28T07:30:47;5.20;99.20
8105;DHT22;4095;48.942;9.104;2023-01-28T07:33:12;5.30;99.20
8105;DHT22;4095;48.942;9.104;2023-01-28T07:35:38;5.20;99.10
8105;DHT22;4095;48.942;9.104;2023-01-28T07:38:03;5.30;99.40
8105;DHT22;4095;48.942;9.104;2023-01-28T07:40:29;5.30;99.40
8105;DHT22;4095;48.942;9.104;2023-01-28T07:42:55;5.30;99.40
8105;DHT22;4095;48.942;9.104;2023-01-28T07:45:22;5.30;99.40
8105;DHT22;4095;48.942;9.104;2023-01-28T07:47:59;5.30;99.40
8105;DHT22;4095;48.942;9.104;2023-01-28T07:50:25;5.30;99.30
8105;DHT22;4095;48.942;9.104;2023-01-28T07:52:51;5.40;99.40
8105;DHT22;4095;48.942;9.104;2023-01-28T07:55:17;5.40;99.40
8105;DHT22;4095;48.942;9.104;2023-01-28T07:57:50;5.40;99.30
8105;DHT22;4095;48.942;9.104;2023-01-28T08:00:16;5.40;99.20
8105;DHT22;4095;48.942;9.104;2023-01-28T08:02:41;5.50;99.20
8105;DHT22;4095;48.942;9.104;2023-01-28T08:05:10;5.50;99.20
8105;DHT22;4095;48.942;9.104;2023-01-28T08:07:36;5.50;99.00
8105;DHT22;4095;48.942;9.104;2023-01-28T08:10:01;5.50;99.20
8105;DHT22;4095;48.942;9.104;2023-01-28T08:12:27;5.50;99.40
8105;DHT22;4095;48.942;9.104;2023-01-28T08:14:53;5.60;99.50
8105;DHT22;4095;48.942;9.104;2023-01-28T08:17:19;5.60;99.20
8105;DHT22;4095;48.942;9.104;2023-01-28T08:19:44;5.60;99.20
8105;DHT22;4095;48.942;9.104;2023-01-28T08:22:10;5.60;99.00
8105;DHT22;4095;48.942;9.104;2023-01-28T08:24:35;5.60;99.00
8105;DHT22;4095;48.942;9.104;2023-01-28T08:27:01;5.60;99.10
8105;DHT22;4095;48.942;9.104;2023-01-28T08:29:27;5.70;99.20
8105;DHT22;4095;48.942;9.104;2023-01-28T08:31:52;5.70;99.30
8105;DHT22;4095;48.942;9.104;2023-01-28T08:34:18;5.70;99.30
8105;DHT22;4095;48.942;9.104;2023-01-28T08:36:43;5.70;99.40
8105;DHT22;4095;48.942;9.104;2023-01-28T08:39:09;5.70;99.30
8105;DHT22;4095;48.942;9.104;2023-01-28T08:41:34;5.80;99.30
8105;DHT22;4095;48.942;9.104;2023-01-28T08:44:00;5.80;99.20
8105;DHT22;4095;48.942;9.104;2023-01-28T08:46:25;5.80;99.10
8105;DHT22;4095;48.942;9.104;2023-01-28T08:48:51;5.80;99.30
8105;DHT22;4095;48.942;9.104;2023-01-28T08:51:17;5.90;99.00
8105;DHT22;4095;48.942;9.104;2023-01-28T08:53:42;5.90;98.80
8105;DHT22;4095;48.942;9.104;2023-01-28T08:56:08;5.90;98.80
8105;DHT22;4095;48.942;9.104;2023-01-28T08:58:33;6.00;98.80
8105;DHT22;4095;48.942;9.104;2023-01-28T09:01:04;6.00;98.80
8105;DHT22;4095;48.942;9.104;2023-01-28T09:03:30;6.00;98.60
8105;DHT22;4095;48.942;9.104;2023-01-28T09:06:02;6.00;98.70
8105;DHT22;4095;48.942;9.104;2023-01-28T09:08:28;6.00;98.50
8105;DHT22;4095;48.942;9.104;2023-01-28T09:10:57;6.10;98.60
8105;DHT22;4095;48.942;9.104;2023-01-28T09:13:23;6.10;98.60
8105;DHT22;4095;48.942;9.104;2023-01-28T09:15:49;6.10;98.60
8105;DHT22;4095;48.942;9.104;2023-01-28T09:18:16;6.10;98.50
8105;DHT22;4095;48.942;9.104;2023-01-28T09:20:41;6.20;98.50
8105;DHT22;4095;48.942;9.104;2023-01-28T09:23:07;6.10;98.40
8105;DHT22;4095;48.942;9.104;2023-01-28T09:25:33;6.20;98.60
8105;DHT22;4095;48.942;9.104;2023-01-28T09:28:00;6.20;98.60
8105;DHT22;4095;48.942;9.104;2023-01-28T09:30:27;6.20;98.50
8105;DHT22;4095;48.942;9.104;2023-01-28T09:32:53;6.20;98.40
8105;DHT22;4095;48.942;9.104;2023-01-28T09:35:20;6.20;98.50
8105;DHT22;4095;48.942;9.104;2023-01-28T09:37:46;6.30;98.40
8105;DHT22;4095;48.942;9.104;2023-01-28T09:40:37;6.30;98.40
8105;DHT22;4095;48.942;9.104;2023-01-28T09:45:47;6.40;98.40
8105;DHT22;4095;48.942;9.104;2023-01-28T09:48:16;6.30;98.10
8105;DHT22;4095;48.942;9.104;2023-01-28T09:50:45;6.40;98.20
8105;DHT22;4095;48.942;9.104;2023-01-28T09:53:25;6.40;98.20
8105;DHT22;4095;48.942;9.104;2023-01-28T09:58:23;6.40;98.20
8105;DHT22;4095;48.942;9.104;2023-01-28T10:01:01;6.50;98.20
8105;DHT22;4095;48.942;9.104;2023-01-28T10:11:44;6.40;98.00
8105;DHT22;4095;48.942;9.104;2023-01-28T10:19:36;6.40;97.80
8105;DHT22;4095;48.942;9.104;2023-01-28T10:22:13;6.40;97.80
8105;DHT22;4095;48.942;9.104;2023-01-28T10:24:53;6.50;97.90
8105;DHT22;4095;48.942;9.104;2023-01-28T10:27:25;6.50;97.70
8105;DHT22;4095;48.942;9.104;2023-01-28T10:29:52;6.50;97.60
8105;DHT22;4095;48.942;9.104;2023-01-28T10:32:38;6.50;97.70
8105;DHT22;4095;48.942;9.104;2023-01-28T10:35:08;6.60;97.80
8105;DHT22;4095;48.942;9.104;2023-01-28T10:37:36;6.60;97.70
8105;DHT22;4095;48.942;9.104;2023-01-28T10:40:04;6.60;97.70
8105;DHT22;4095;48.942;9.104;2023-01-28T10:42:32;6.60;97.60
8105;DHT22;4095;48.942;9.104;2023-01-28T10:45:22;6.60;97.60
8105;DHT22;4095;48.942;9.104;2023-01-28T10:47:55;6.70;97.60
8105;DHT22;4095;48.942;9.104;2023-01-28T10:50:26;6.70;97.70
8105;DHT22;4095;48.942;9.104;2023-01-28T10:55:25;6.70;97.40
8105;DHT22;4095;48.942;9.104;2023-01-28T10:57:52;6.70;97.60
8105;DHT22;4095;48.942;9.104;2023-01-28T11:00:21;6.70;97.40
8105;DHT22;4095;48.942;9.104;2023-01-28T11:02:48;6.70;97.40
8105;DHT22;4095;48.942;9.104;2023-01-28T11:05:18;6.70;97.30
8105;DHT22;4095;48.942;9.104;2023-01-28T11:07:45;6.80;97.80
8105;DHT22;4095;48.942;9.104;2023-01-28T11:10:26;6.70;97.20
8105;DHT22;4095;48.942;9.104;2023-01-28T11:12:58;6.70;97.20
8105;DHT22;4095;48.942;9.104;2023-01-28T11:15:24;6.70;97.20
8105;DHT22;4095;48.942;9.104;2023-01-28T11:18:02;6.60;97.20
8105;DHT22;4095;48.942;9.104;2023-01-28T11:20:36;6.70;97.30
8105;DHT22;4095;48.942;9.104;2023-01-28T11:23:02;6.60;97.30
8105;DHT22;4095;48.942;9.104;2023-01-28T11:25:35;6.60;97.30
8105;DHT22;4095;48.942;9.104;2023-01-28T11:28:05;6.60;97.50
8105;DHT22;4095;48.942;9.104;2023-01-28T11:30:34;6.60;97.50
8105;DHT22;4095;48.942;9.104;2023-01-28T11:35:35;6.60;97.30
8105;DHT22;4095;48.942;9.104;2023-01-28T11:38:00;6.50;97.20
8105;DHT22;4095;48.942;9.104;2023-01-28T11:40:26;6.40;97.50
8105;DHT22;4095;48.942;9.104;2023-01-28T11:42:54;6.50;97.80
8105;DHT22;4095;48.942;9.104;2023-01-28T11:45:42;6.50;97.70
8105;DHT22;4095;48.942;9.104;2023-01-28T11:48:30;6.50;98.20
8105;DHT22;4095;48.942;9.104;2023-01-28T11:57:22;6.40;98.00
8105;DHT22;4095;48.942;9.104;2023-01-28T12:05:40;6.40;98.70
8105;DHT22;4095;48.942;9.104;2023-01-28T12:08:23;6.30;98.60
8105;DHT22;4095;48.942;9.104;2023-01-28T12:14:10;6.30;98.90
8105;DHT22;4095;48.942;9.104;2023-01-28T12:22:12;6.10;99.20
8105;DHT22;4095;48.942;9.104;2023-01-28T12:30:08;6.10;99.70
8105;DHT22;4095;48.942;9.104;2023-01-28T12:37:58;6.10;99.50
8105;DHT22;4095;48.942;9.104;2023-01-28T12:43:59;6.10;99.70
8105;DHT22;4095;48.942;9.104;2023-01-28T12:46:53;6.10;99.30
8105;DHT22;4095;48.942;9.104;2023-01-28T12:55:02;6.10;99.30
8105;DHT22;4095;48.942;9.104;2023-01-28T12:57:31;6.20;99.20
8105;DHT22;4095;48.942;9.104;2023-01-28T13:03:09;6.10;98.80
8105;DHT22;4095;48.942;9.104;2023-01-28T13:05:43;6.10;98.80
8105;DHT22;4095;48.942;9.104;2023-01-28T13:08:23;6.10;98.90
8105;DHT22;4095;48.942;9.104;2023-01-28T13:10:49;6.10;98.70
8105;DHT22;4095;48.942;9.104;2023-01-28T13:13:19;6.10;98.70
8105;DHT22;4095;48.942;9.104;2023-01-28T13:15:48;6.10;98.30
8105;DHT22;4095;48.942;9.104;2023-01-28T13:20:59;6.10;98.30
8105;DHT22;4095;48.942;9.104;2023-01-28T13:23:42;6.10;98.20
8105;DHT22;4095;48.942;9.104;2023-01-28T13:26:35;6.20;98.00
8105;DHT22;4095;48.942;9.104;2023-01-28T13:31:45;6.20;97.90
8105;DHT22;4095;48.942;9.104;2023-01-28T13:34:34;6.20;98.20
8105;DHT22;4095;48.942;9.104;2023-01-28T13:37:23;6.30;97.70
8105;DHT22;4095;48.942;9.104;2023-01-28T13:42:39;6.30;98.00
8105;DHT22;4095;48.942;9.104;2023-01-28T13:47:44;6.40;97.50
8105;DHT22;4095;48.942;9.104;2023-01-28T13:50:23;6.40;97.50
8105;DHT22;4095;48.942;9.104;2023-01-28T13:53:04;6.40;97.40
8105;DHT22;4095;48.942;9.104;2023-01-28T13:55:37;6.40;97.40
8105;DHT22;4095;48.942;9.104;2023-01-28T14:11:14;6.40;96.80
8105;DHT22;4095;48.942;9.104;2023-01-28T14:16:56;6.30;96.60
8105;DHT22;4095;48.942;9.104;2023-01-28T14:19:29;6.40;96.60
8105;DHT22;4095;48.942;9.104;2023-01-28T14:21:55;6.40;96.70
8105;DHT22;4095;48.942;9.104;2023-01-28T14:24:21;6.40;96.90
8105;DHT22;4095;48.942;9.104;2023-01-28T14:29:43;6.30;96.60
8105;DHT22;4095;48.942;9.104;2023-01-28T14:32:16;6.30;96.70
8105;DHT22;4095;48.942;9.104;2023-01-28T14:34:43;6.40;97.00
8105;DHT22;4095;48.942;9.104;2023-01-28T14:37:15;6.40;96.30
8105;DHT22;4095;48.942;9.104;2023-01-28T14:39:45;6.40;96.40
8105;DHT22;4095;48.942;9.104;2023-01-28T14:42:19;6.40;96.10
8105;DHT22;4095;48.942;9.104;2023-01-28T14:44:50;6.30;96.00
8105;DHT22;4095;48.942;9.104;2023-01-28T14:57:56;6.30;95.80
8105;DHT22;4095;48.942;9.104;2023-01-28T15:00:29;6.30;96.00
8105;DHT22;4095;48.942;9.104;2023-01-28T15:02:55;6.30;95.80
8105;DHT22;4095;48.942;9.104;2023-01-28T15:05:24;6.30;95.80
8105;DHT22;4095;48.942;9.104;2023-01-28T15:07:51;6.30;95.60
8105;DHT22;4095;48.942;9.104;2023-01-28T15:10:30;6.30;95.60
8105;DHT22;4095;48.942;9.104;2023-01-28T15:12:58;6.30;95.60
8105;DHT22;4095;48.942;9.104;2023-01-28T15:15:36;6.30;95.70
8105;DHT22;4095;48.942;9.104;2023-01-28T15:18:28;6.30;95.60
8105;DHT22;4095;48.942;9.104;2023-01-28T15:20:52;6.30;95.60
8105;DHT22;4095;48.942;9.104;2023-01-28T15:23:26;6.30;95.60
8105;DHT22;4095;48.942;9.104;2023-01-28T15:25:52;6.30;95.80
8105;DHT22;4095;48.942;9.104;2023-01-28T15:28:30;6.30;95.80
8105;DHT22;4095;48.942;9.104;2023-01-28T15:30:56;6.30;95.80
8105;DHT22;4095;48.942;9.104;2023-01-28T15:33:22;6.20;95.70
8105;DHT22;4095;48.942;9.104;2023-01-28T15:35:50;6.30;95.90
8105;DHT22;4095;48.942;9.104;2023-01-28T15:38:16;6.20;95.70
8105;DHT22;4095;48.942;9.104;2023-01-28T15:40:47;6.20;96.10
8105;DHT22;4095;48.942;9.104;2023-01-28T15:43:19;6.20;95.50
8105;DHT22;4095;48.942;9.104;2023-01-28T15:45:46;6.20;95.70
8105;DHT22;4095;48.942;9.104;2023-01-28T15:48:15;6.20;95.60
8105;DHT22;4095;48.942;9.104;2023-01-28T15:50:42;6.20;95.60
8105;DHT22;4095;48.942;9.104;2023-01-28T15:53:10;6.20;95.60
8105;DHT22;4095;48.942;9.104;2023-01-28T15:55:41;6.20;95.60
8105;DHT22;4095;48.942;9.104;2023-01-28T16:00:36;6.20;95.60
8105;DHT22;4095;48.942;9.104;2023-01-28T16:03:07;6.10;95.50
8105;DHT22;4095;48.942;9.104;2023-01-28T16:05:37;6.10;95.70
8105;DHT22;4095;48.942;9.104;2023-01-28T16:08:17;6.10;95.80
8105;DHT22;4095;48.942;9.104;2023-01-28T16:10:51;6.10;95.80
8105;DHT22;4095;48.942;9.104;2023-01-28T16:13:41;6.10;95.80
8105;DHT22;4095;48.942;9.104;2023-01-28T16:16:08;6.10;95.70
8105;DHT22;4095;48.942;9.104;2023-01-28T16:18:48;6.10;95.50
8105;DHT22;4095;48.942;9.104;2023-01-28T16:21:31;6.10;95.60
8105;DHT22;4095;48.942;9.104;2023-01-28T16:24:04;6.10;95.60
8105;DHT22;4095;48.942;9.104;2023-01-28T16:26:33;6.10;95.30
8105;DHT22;4095;48.942;9.104;2023-01-28T16:29:17;6.00;95.20
8105;DHT22;4095;48.942;9.104;2023-01-28T16:31:42;6.00;95.30
8105;DHT22;4095;48.942;9.104;2023-01-28T16:34:09;6.00;95.30
8105;DHT22;4095;48.942;9.104;2023-01-28T16:36:35;6.00;95.50
8105;DHT22;4095;48.942;9.104;2023-01-28T16:39:01;6.00;95.40
8105;DHT22;4095;48.942;9.104;2023-01-28T16:41:28;5.90;95.30
8105;DHT22;4095;48.942;9.104;2023-01-28T16:43:56;5.90;95.30
8105;DHT22;4095;48.942;9.104;2023-01-28T16:46:26;5.90;95.30
8105;DHT22;4095;48.942;9.104;2023-01-28T16:48:51;5.90;95.40
8105;DHT22;4095;48.942;9.104;2023-01-28T16:51:18;5.90;95.40
8105;DHT22;4095;48.942;9.104;2023-01-28T16:53:45;5.90;95.40
8105;DHT22;4095;48.942;9.104;2023-01-28T16:56:21;5.90;95.40
8105;DHT22;4095;48.942;9.104;2023-01-28T16:58:47;5.90;95.70
8105;DHT22;4095;48.942;9.104;2023-01-28T17:01:13;5.90;95.40
8105;DHT22;4095;48.942;9.104;2023-01-28T17:03:39;5.90;95.30
8105;DHT22;4095;48.942;9.104;2023-01-28T17:06:14;5.80;95.40
8105;DHT22;4095;48.942;9.104;2023-01-28T17:08:40;5.90;95.60
8105;DHT22;4095;48.942;9.104;2023-01-28T17:11:06;5.80;95.50
8105;DHT22;4095;48.942;9.104;2023-01-28T17:13:32;5.80;95.50
8105;DHT22;4095;48.942;9.104;2023-01-28T17:16:00;5.80;95.60
8105;DHT22;4095;48.942;9.104;2023-01-28T17:18:27;5.70;95.50
8105;DHT22;4095;48.942;9.104;2023-01-28T17:20:53;5.70;95.30
8105;DHT22;4095;48.942;9.104;2023-01-28T17:23:18;5.70;95.40
8105;DHT22;4095;48.942;9.104;2023-01-28T17:25:48;5.70;95.30
8105;DHT22;4095;48.942;9.104;2023-01-28T17:28:14;5.60;95.20
8105;DHT22;4095;48.942;9.104;2023-01-28T17:30:40;5.60;95.20
8105;DHT22;4095;48.942;9.104;2023-01-28T17:33:06;5.60;95.20
8105;DHT22;4095;48.942;9.104;2023-01-28T17:35:32;5.60;95.20
8105;DHT22;4095;48.942;9.104;2023-01-28T17:38:00;5.60;95.00
8105;DHT22;4095;48.942;9.104;2023-01-28T17:40:27;5.60;95.10
8105;DHT22;4095;48.942;9.104;2023-01-28T17:42:54;5.50;95.10
8105;DHT22;4095;48.942;9.104;2023-01-28T17:45:19;5.50;95.10
8105;DHT22;4095;48.942;9.104;2023-01-28T17:47:45;5.40;95.20
8105;DHT22;4095;48.942;9.104;2023-01-28T17:50:10;5.50;95.20
8105;DHT22;4095;48.942;9.104;2023-01-28T17:52:36;5.50;95.20
8105;DHT22;4095;48.942;9.104;2023-01-28T17:55:02;5.50;95.30
8105;DHT22;4095;48.942;9.104;2023-01-28T17:57:28;5.50;95.30
8105;DHT22;4095;48.942;9.104;2023-01-28T17:59:54;5.50;95.30
8105;DHT22;4095;48.942;9.104;2023-01-28T18:02:19;5.40;95.30
8105;DHT22;4095;48.942;9.104;2023-01-28T18:04:45;5.50;95.30
8105;DHT22;4095;48.942;9.104;2023-01-28T18:07:11;5.50;95.40
8105;DHT22;4095;48.942;9.104;2023-01-28T18:09:42;5.50;95.40
8105;DHT22;4095;48.942;9.104;2023-01-28T18:12:11;5.50;95.20
8105;DHT22;4095;48.942;9.104;2023-01-28T18:14:37;5.50;95.30
8105;DHT22;4095;48.942;9.104;2023-01-28T18:17:05;5.50;95.70
8105;DHT22;4095;48.942;9.104;2023-01-28T18:19:30;5.50;95.60
8105;DHT22;4095;48.942;9.104;2023-01-28T18:21:56;5.50;95.60
8105;DHT22;4095;48.942;9.104;2023-01-28T18:24:26;5.50;95.60
8105;DHT22;4095;48.942;9.104;2023-01-28T18:26:54;5.50;95.70
8105;DHT22;4095;48.942;9.104;2023-01-28T18:29:20;5.50;95.50
8105;DHT22;4095;48.942;9.104;2023-01-28T18:31:49;5.50;95.50
8105;DHT22;4095;48.942;9.104;2023-01-28T18:34:18;5.50;95.60
8105;DHT22;4095;48.942;9.104;2023-01-28T18:36:44;5.50;95.50
8105;DHT22;4095;48.942;9.104;2023-01-28T18:39:11;5.40;95.30
8105;DHT22;4095;48.942;9.104;2023-01-28T18:41:37;5.40;95.30
8105;DHT22;4095;48.942;9.104;2023-01-28T18:44:03;5.40;95.40